sensor_id;sensor_type;location;lat;lon;timestamp;P1;durP1;ratioP1;P2;durP2;ratioP2
48034;SDS011;33812;46.480;6.834;2023-09-30T00:02:37;45.65;;;41.58;;
48034;SDS011;33812;46.480;6.834;2023-09-30T00:06:38;46.75;;;42.13;;
48034;SDS011;33812;46.480;6.834;2023-09-30T00:10:42;47.20;;;42.85;;
48034;SDS011;33812;46.480;6.834;2023-09-30T00:14:43;49.10;;;45.03;;
48034;SDS011;33812;46.480;6.834;2023-09-30T00:18:45;44.58;;;40.45;;
48034;SDS011;33812;46.480;6.834;2023-09-30T00:22:47;44.70;;;40.35;;
48034;SDS011;33812;46.480;6.834;2023-09-30T00:26:51;51.65;;;47.05;;
48034;SDS011;33812;46.480;6.834;2023-09-30T00:30:53;51.83;;;47.08;;
48034;SDS011;33812;46.480;6.834;2023-09-30T00:34:54;53.80;;;48.75;;
48034;SDS011;33812;46.480;6.834;2023-09-30T00:38:56;55.25;;;50.53;;
48034;SDS011;33812;46.480;6.834;2023-09-30T00:42:59;52.15;;;47.50;;
48034;SDS011;33812;46.480;6.834;2023-09-30T00:47:01;46.80;;;42.75;;
48034;SDS011;33812;46.480;6.834;2023-09-30T00:51:03;51.63;;;46.95;;
48034;SDS011;33812;46.480;6.834;2023-09-30T00:55:05;46.25;;;42.28;;
48034;SDS011;33812;46.480;6.834;2023-09-30T00:59:12;44.53;;;38.63;;
48034;SDS011;33812;46.480;6.834;2023-09-30T01:03:14;40.55;;;36.55;;
48034;SDS011;33812;46.480;6.834;2023-09-30T01:07:16;45.03;;;40.80;;
48034;SDS011;33812;46.480;6.834;2023-09-30T01:11:21;38.65;;;35.08;;
48034;SDS011;33812;46.480;6.834;2023-09-30T01:15:25;47.10;;;42.67;;
48034;SDS011;33812;46.480;6.834;2023-09-30T01:19:26;40.00;;;35.95;;
48034;SDS011;33812;46.480;6.834;2023-09-30T01:23:30;43.03;;;38.75;;
48034;SDS011;33812;46.480;6.834;2023-09-30T01:27:33;42.13;;;38.13;;
48034;SDS011;33812;46.480;6.834;2023-09-30T01:31:34;50.53;;;45.63;;
48034;SDS011;33812;46.480;6.834;2023-09-30T01:35:36;41.75;;;37.83;;
48034;SDS011;33812;46.480;6.834;2023-09-30T01:39:39;57.20;;;52.25;;
48034;SDS011;33812;46.480;6.834;2023-09-30T01:43:41;53.00;;;48.22;;
48034;SDS011;33812;46.480;6.834;2023-09-30T01:47:43;57.88;;;52.85;;
48034;SDS011;33812;46.480;6.834;2023-09-30T01:51:45;46.15;;;41.63;;
48034;SDS011;33812;46.480;6.834;2023-09-30T01:55:48;43.55;;;39.33;;
48034;SDS011;33812;46.480;6.834;2023-09-30T01:59:50;55.50;;;50.33;;
48034;SDS011;33812;46.480;6.834;2023-09-30T02:03:52;50.10;;;45.58;;
48034;SDS011;33812;46.480;6.834;2023-09-30T02:07:53;47.33;;;42.75;;
48034;SDS011;33812;46.480;6.834;2023-09-30T02:11:57;58.47;;;52.33;;
48034;SDS011;33812;46.480;6.834;2023-09-30T02:15:59;54.30;;;49.33;;
48034;SDS011;33812;46.480;6.834;2023-09-30T02:20:01;57.42;;;51.80;;
48034;SDS011;33812;46.480;6.834;2023-09-30T02:24:07;65.72;;;59.72;;
48034;SDS011;33812;46.480;6.834;2023-09-30T02:28:10;42.55;;;38.22;;
48034;SDS011;33812;46.480;6.834;2023-09-30T02:32:13;44.87;;;40.37;;
48034;SDS011;33812;46.480;6.834;2023-09-30T02:36:14;41.00;;;34.47;;
48034;SDS011;33812;46.480;6.834;2023-09-30T02:40:16;47.20;;;42.30;;
48034;SDS011;33812;46.480;6.834;2023-09-30T02:44:20;47.78;;;42.97;;
48034;SDS011;33812;46.480;6.834;2023-09-30T02:48:22;45.50;;;40.92;;
48034;SDS011;33812;46.480;6.834;2023-09-30T02:52:24;52.72;;;47.78;;
48034;SDS011;33812;46.480;6.834;2023-09-30T02:56:25;58.20;;;52.72;;
48034;SDS011;33812;46.480;6.834;2023-09-30T03:00:31;83.25;;;76.22;;
48034;SDS011;33812;46.480;6.834;2023-09-30T03:04:34;100.35;;;92.63;;
48034;SDS011;33812;46.480;6.834;2023-09-30T03:08:36;45.03;;;40.83;;
48034;SDS011;33812;46.480;6.834;2023-09-30T03:12:38;45.15;;;40.55;;
48034;SDS011;33812;46.480;6.834;2023-09-30T03:16:41;44.80;;;40.95;;
48034;SDS011;33812;46.480;6.834;2023-09-30T03:20:44;42.90;;;38.90;;
48034;SDS011;33812;46.480;6.834;2023-09-30T03:24:48;57.53;;;52.72;;
48034;SDS011;33812;46.480;6.834;2023-09-30T03:28:50;56.80;;;52.25;;
48034;SDS011;33812;46.480;6.834;2023-09-30T03:32:53;40.97;;;37.05;;
48034;SDS011;33812;46.480;6.834;2023-09-30T03:36:55;48.65;;;44.65;;
48034;SDS011;33812;46.480;6.834;2023-09-30T03:40:59;45.15;;;40.55;;
48034;SDS011;33812;46.480;6.834;2023-09-30T03:45:01;44.05;;;39.92;;
48034;SDS011;33812;46.480;6.834;2023-09-30T03:49:07;49.70;;;45.28;;
48034;SDS011;33812;46.480;6.834;2023-09-30T03:53:09;36.57;;;32.77;;
48034;SDS011;33812;46.480;6.834;2023-09-30T03:57:11;45.03;;;41.00;;
48034;SDS011;33812;46.480;6.834;2023-09-30T04:01:15;33.28;;;29.95;;
48034;SDS011;33812;46.480;6.834;2023-09-30T04:05:21;50.75;;;46.08;;
48034;SDS011;33812;46.480;6.834;2023-09-30T04:09:26;38.90;;;35.17;;
48034;SDS011;33812;46.480;6.834;2023-09-30T04:13:28;40.33;;;36.42;;
48034;SDS011;33812;46.480;6.834;2023-09-30T04:17:30;33.80;;;30.40;;
48034;SDS011;33812;46.480;6.834;2023-09-30T04:21:34;35.95;;;32.20;;
48034;SDS011;33812;46.480;6.834;2023-09-30T04:25:39;29.35;;;26.23;;
48034;SDS011;33812;46.480;6.834;2023-09-30T04:29:42;27.98;;;25.05;;
48034;SDS011;33812;46.480;6.834;2023-09-30T04:33:44;23.80;;;19.42;;
48034;SDS011;33812;46.480;6.834;2023-09-30T04:37:48;26.58;;;21.83;;
48034;SDS011;33812;46.480;6.834;2023-09-30T04:41:49;23.48;;;17.17;;
48034;SDS011;33812;46.480;6.834;2023-09-30T04:45:51;19.20;;;17.17;;
48034;SDS011;33812;46.480;6.834;2023-09-30T04:49:53;21.80;;;17.70;;
48034;SDS011;33812;46.480;6.834;2023-09-30T04:53:56;17.55;;;15.55;;
48034;SDS011;33812;46.480;6.834;2023-09-30T04:57:59;18.70;;;14.82;;
48034;SDS011;33812;46.480;6.834;2023-09-30T05:02:01;19.90;;;16.80;;
48034;SDS011;33812;46.480;6.834;2023-09-30T05:06:03;20.00;;;16.88;;
48034;SDS011;33812;46.480;6.834;2023-09-30T05:10:10;17.83;;;15.77;;
48034;SDS011;33812;46.480;6.834;2023-09-30T05:14:15;23.42;;;16.38;;
48034;SDS011;33812;46.480;6.834;2023-09-30T05:18:17;19.10;;;16.67;;
48034;SDS011;33812;46.480;6.834;2023-09-30T05:22:19;19.48;;;17.45;;
48034;SDS011;33812;46.480;6.834;2023-09-30T05:26:25;18.10;;;16.05;;
48034;SDS011;33812;46.480;6.834;2023-09-30T05:30:27;18.67;;;16.83;;
48034;SDS011;33812;46.480;6.834;2023-09-30T05:34:28;17.83;;;15.63;;
48034;SDS011;33812;46.480;6.834;2023-09-30T05:38:30;20.02;;;17.70;;
48034;SDS011;33812;46.480;6.834;2023-09-30T05:42:33;33.63;;;30.67;;
48034;SDS011;33812;46.480;6.834;2023-09-30T05:46:36;26.17;;;21.80;;
48034;SDS011;33812;46.480;6.834;2023-09-30T05:50:38;35.60;;;32.10;;
48034;SDS011;33812;46.480;6.834;2023-09-30T05:54:40;35.70;;;31.98;;
48034;SDS011;33812;46.480;6.834;2023-09-30T05:58:43;39.20;;;35.47;;
48034;SDS011;33812;46.480;6.834;2023-09-30T06:02:46;34.63;;;31.33;;
48034;SDS011;33812;46.480;6.834;2023-09-30T06:06:48;43.67;;;40.03;;
48034;SDS011;33812;46.480;6.834;2023-09-30T06:10:51;33.30;;;29.85;;
48034;SDS011;33812;46.480;6.834;2023-09-30T06:14:56;49.57;;;45.23;;
48034;SDS011;33812;46.480;6.834;2023-09-30T06:18:58;43.88;;;40.10;;
48034;SDS011;33812;46.480;6.834;2023-09-30T06:23:00;50.38;;;46.08;;
48034;SDS011;33812;46.480;6.834;2023-09-30T06:27:02;86.15;;;79.18;;
48034;SDS011;33812;46.480;6.834;2023-09-30T06:31:06;72.57;;;66.30;;
48034;SDS011;33812;46.480;6.834;2023-09-30T06:35:09;110.25;;;101.93;;
48034;SDS011;33812;46.480;6.834;2023-09-30T06:39:11;114.55;;;105.05;;
48034;SDS011;33812;46.480;6.834;2023-09-30T06:43:13;73.95;;;67.78;;
48034;SDS011;33812;46.480;6.834;2023-09-30T06:47:17;79.65;;;72.47;;
48034;SDS011;33812;46.480;6.834;2023-09-30T06:51:18;63.55;;;57.03;;
48034;SDS011;33812;46.480;6.834;2023-09-30T06:55:20;67.53;;;62.03;;
48034;SDS011;33812;46.480;6.834;2023-09-30T06:59:22;58.33;;;53.05;;
48034;SDS011;33812;46.480;6.834;2023-09-30T07:03:26;57.97;;;51.80;;
48034;SDS011;33812;46.480;6.834;2023-09-30T07:07:28;71.30;;;64.05;;
48034;SDS011;33812;46.480;6.834;2023-09-30T07:11:30;75.45;;;68.93;;
48034;SDS011;33812;46.480;6.834;2023-09-30T07:15:33;61.20;;;49.78;;
48034;SDS011;33812;46.480;6.834;2023-09-30T07:19:36;57.88;;;52.47;;
48034;SDS011;33812;46.480;6.834;2023-09-30T07:23:38;38.00;;;33.47;;
48034;SDS011;33812;46.480;6.834;2023-09-30T07:27:41;44.38;;;39.85;;
48034;SDS011;33812;46.480;6.834;2023-09-30T07:31:44;38.10;;;34.03;;
48034;SDS011;33812;46.480;6.834;2023-09-30T07:35:47;42.03;;;37.75;;
48034;SDS011;33812;46.480;6.834;2023-09-30T07:39:49;35.35;;;27.52;;
48034;SDS011;33812;46.480;6.834;2023-09-30T07:43:52;40.67;;;36.63;;
48034;SDS011;33812;46.480;6.834;2023-09-30T07:47:59;33.90;;;30.15;;
48034;SDS011;33812;46.480;6.834;2023-09-30T07:52:05;42.60;;;38.35;;
48034;SDS011;33812;46.480;6.834;2023-09-30T07:56:08;42.72;;;33.42;;
48034;SDS011;33812;46.480;6.834;2023-09-30T08:00:10;36.97;;;25.75;;
48034;SDS011;33812;46.480;6.834;2023-09-30T08:04:16;42.72;;;38.63;;
48034;SDS011;33812;46.480;6.834;2023-09-30T08:08:19;32.83;;;29.38;;
48034;SDS011;33812;46.480;6.834;2023-09-30T08:12:22;29.07;;;24.43;;
48034;SDS011;33812;46.480;6.834;2023-09-30T08:16:24;33.72;;;30.15;;
48034;SDS011;33812;46.480;6.834;2023-09-30T08:20:26;33.90;;;28.48;;
48034;SDS011;33812;46.480;6.834;2023-09-30T08:24:30;27.67;;;24.73;;
48034;SDS011;33812;46.480;6.834;2023-09-30T08:28:31;33.38;;;28.15;;
48034;SDS011;33812;46.480;6.834;2023-09-30T08:32:34;28.77;;;25.92;;
48034;SDS011;33812;46.480;6.834;2023-09-30T08:36:36;32.40;;;27.08;;
48034;SDS011;33812;46.480;6.834;2023-09-30T08:40:40;29.63;;;26.83;;
48034;SDS011;33812;46.480;6.834;2023-09-30T08:44:43;36.83;;;33.45;;
48034;SDS011;33812;46.480;6.834;2023-09-30T08:48:46;31.45;;;28.08;;
48034;SDS011;33812;46.480;6.834;2023-09-30T08:52:50;39.83;;;35.53;;
48034;SDS011;33812;46.480;6.834;2023-09-30T08:57:00;34.42;;;30.40;;
48034;SDS011;33812;46.480;6.834;2023-09-30T09:01:04;33.83;;;30.33;;
48034;SDS011;33812;46.480;6.834;2023-09-30T09:05:10;36.38;;;32.83;;
48034;SDS011;33812;46.480;6.834;2023-09-30T09:09:13;34.90;;;29.95;;
48034;SDS011;33812;46.480;6.834;2023-09-30T09:13:18;35.05;;;31.67;;
48034;SDS011;33812;46.480;6.834;2023-09-30T09:17:21;28.38;;;25.23;;
48034;SDS011;33812;46.480;6.834;2023-09-30T09:21:23;39.42;;;33.80;;
48034;SDS011;33812;46.480;6.834;2023-09-30T09:25:26;40.38;;;36.53;;
48034;SDS011;33812;46.480;6.834;2023-09-30T09:29:30;44.95;;;40.60;;
48034;SDS011;33812;46.480;6.834;2023-09-30T09:33:34;30.85;;;27.75;;
48034;SDS011;33812;46.480;6.834;2023-09-30T09:37:37;35.58;;;31.95;;
48034;SDS011;33812;46.480;6.834;2023-09-30T09:41:48;35.85;;;32.53;;
48034;SDS011;33812;46.480;6.834;2023-09-30T09:45:53;29.77;;;26.27;;
48034;SDS011;33812;46.480;6.834;2023-09-30T09:49:59;31.15;;;28.17;;
48034;SDS011;33812;46.480;6.834;2023-09-30T09:54:04;33.08;;;28.10;;
48034;SDS011;33812;46.480;6.834;2023-09-30T09:58:08;36.13;;;32.57;;
48034;SDS011;33812;46.480;6.834;2023-09-30T10:02:13;41.92;;;37.50;;
48034;SDS011;33812;46.480;6.834;2023-09-30T10:06:16;37.08;;;33.60;;
48034;SDS011;33812;46.480;6.834;2023-09-30T10:10:19;40.35;;;36.40;;
48034;SDS011;33812;46.480;6.834;2023-09-30T10:14:30;43.00;;;38.67;;
48034;SDS011;33812;46.480;6.834;2023-09-30T10:18:38;46.40;;;42.03;;
48034;SDS011;33812;46.480;6.834;2023-09-30T10:23:25;56.72;;;51.78;;
48034;SDS011;33812;46.480;6.834;2023-09-30T10:27:34;54.55;;;49.70;;
48034;SDS011;33812;46.480;6.834;2023-09-30T10:35:51;51.42;;;46.35;;
48034;SDS011;33812;46.480;6.834;2023-09-30T10:39:55;49.05;;;44.45;;
48034;SDS011;33812;46.480;6.834;2023-09-30T10:43:58;49.63;;;45.10;;
48034;SDS011;33812;46.480;6.834;2023-09-30T10:48:37;52.67;;;47.95;;
48034;SDS011;33812;46.480;6.834;2023-09-30T10:56:44;44.92;;;40.45;;
48034;SDS011;33812;46.480;6.834;2023-09-30T11:00:52;54.92;;;50.00;;
48034;SDS011;33812;46.480;6.834;2023-09-30T11:04:54;41.25;;;37.33;;
48034;SDS011;33812;46.480;6.834;2023-09-30T11:08:58;38.90;;;35.22;;
48034;SDS011;33812;46.480;6.834;2023-09-30T11:13:01;38.00;;;31.67;;
48034;SDS011;33812;46.480;6.834;2023-09-30T11:17:05;36.38;;;31.98;;
48034;SDS011;33812;46.480;6.834;2023-09-30T11:21:08;39.83;;;36.20;;
48034;SDS011;33812;46.480;6.834;2023-09-30T11:25:17;40.63;;;36.63;;
48034;SDS011;33812;46.480;6.834;2023-09-30T11:29:20;35.47;;;31.80;;
48034;SDS011;33812;46.480;6.834;2023-09-30T11:33:23;32.90;;;29.27;;
48034;SDS011;33812;46.480;6.834;2023-09-30T11:37:30;38.90;;;32.03;;
48034;SDS011;33812;46.480;6.834;2023-09-30T11:41:35;37.70;;;33.80;;
48034;SDS011;33812;46.480;6.834;2023-09-30T11:45:40;40.05;;;36.28;;
48034;SDS011;33812;46.480;6.834;2023-09-30T11:49:42;37.78;;;34.13;;
48034;SDS011;33812;46.480;6.834;2023-09-30T11:53:45;37.10;;;33.28;;
48034;SDS011;33812;46.480;6.834;2023-09-30T11:57:48;35.38;;;32.00;;
48034;SDS011;33812;46.480;6.834;2023-09-30T12:01:51;36.10;;;31.63;;
48034;SDS011;33812;46.480;6.834;2023-09-30T12:05:53;36.50;;;33.00;;
48034;SDS011;33812;46.480;6.834;2023-09-30T12:09:57;37.47;;;33.78;;
48034;SDS011;33812;46.480;6.834;2023-09-30T12:14:00;42.78;;;38.67;;
48034;SDS011;33812;46.480;6.834;2023-09-30T12:18:02;36.83;;;33.20;;
48034;SDS011;33812;46.480;6.834;2023-09-30T12:22:06;42.47;;;38.80;;
48034;SDS011;33812;46.480;6.834;2023-09-30T12:26:07;43.65;;;39.72;;
48034;SDS011;33812;46.480;6.834;2023-09-30T12:30:12;31.27;;;28.25;;
48034;SDS011;33812;46.480;6.834;2023-09-30T12:34:14;41.17;;;37.28;;
48034;SDS011;33812;46.480;6.834;2023-09-30T12:38:17;41.60;;;37.80;;
48034;SDS011;33812;46.480;6.834;2023-09-30T12:42:18;43.70;;;39.92;;
48034;SDS011;33812;46.480;6.834;2023-09-30T12:46:21;50.60;;;46.08;;
48034;SDS011;33812;46.480;6.834;2023-09-30T12:50:24;57.40;;;52.15;;
48034;SDS011;33812;46.480;6.834;2023-09-30T12:54:26;53.47;;;48.65;;
48034;SDS011;33812;46.480;6.834;2023-09-30T12:58:29;50.20;;;45.78;;
48034;SDS011;33812;46.480;6.834;2023-09-30T13:02:32;61.85;;;56.75;;
48034;SDS011;33812;46.480;6.834;2023-09-30T13:06:33;60.13;;;55.08;;
48034;SDS011;33812;46.480;6.834;2023-09-30T13:10:36;45.13;;;40.75;;
48034;SDS011;33812;46.480;6.834;2023-09-30T13:14:41;56.72;;;51.80;;
48034;SDS011;33812;46.480;6.834;2023-09-30T13:18:44;51.03;;;46.75;;
48034;SDS011;33812;46.480;6.834;2023-09-30T13:22:46;42.90;;;38.72;;
48034;SDS011;33812;46.480;6.834;2023-09-30T13:26:48;38.90;;;35.10;;
48034;SDS011;33812;46.480;6.834;2023-09-30T13:34:55;38.25;;;31.35;;
48034;SDS011;33812;46.480;6.834;2023-09-30T13:38:57;35.92;;;32.15;;
48034;SDS011;33812;46.480;6.834;2023-09-30T13:42:58;32.80;;;29.48;;
48034;SDS011;33812;46.480;6.834;2023-09-30T13:47:00;39.92;;;35.83;;
48034;SDS011;33812;46.480;6.834;2023-09-30T13:51:07;35.88;;;32.35;;
48034;SDS011;33812;46.480;6.834;2023-09-30T13:55:10;36.03;;;32.75;;
48034;SDS011;33812;46.480;6.834;2023-09-30T13:59:18;34.53;;;30.42;;
48034;SDS011;33812;46.480;6.834;2023-09-30T14:03:21;38.45;;;34.42;;
48034;SDS011;33812;46.480;6.834;2023-09-30T14:07:25;34.00;;;28.83;;
48034;SDS011;33812;46.480;6.834;2023-09-30T14:11:28;33.67;;;30.27;;
48034;SDS011;33812;46.480;6.834;2023-09-30T14:15:30;35.08;;;31.63;;
48034;SDS011;33812;46.480;6.834;2023-09-30T14:19:33;38.25;;;32.95;;
48034;SDS011;33812;46.480;6.834;2023-09-30T14:23:36;35.20;;;31.75;;
48034;SDS011;33812;46.480;6.834;2023-09-30T14:27:38;32.78;;;29.63;;
48034;SDS011;33812;46.480;6.834;2023-09-30T14:31:40;33.92;;;30.52;;
48034;SDS011;33812;46.480;6.834;2023-09-30T14:35:42;33.03;;;30.17;;
48034;SDS011;33812;46.480;6.834;2023-09-30T14:39:47;46.88;;;35.17;;
48034;SDS011;33812;46.480;6.834;2023-09-30T14:43:49;38.72;;;35.33;;
48034;SDS011;33812;46.480;6.834;2023-09-30T14:47:50;32.15;;;28.67;;
48034;SDS011;33812;46.480;6.834;2023-09-30T14:51:52;46.30;;;25.73;;
48034;SDS011;33812;46.480;6.834;2023-09-30T14:55:55;41.30;;;30.98;;
48034;SDS011;33812;46.480;6.834;2023-09-30T14:59:57;24.65;;;21.35;;
48034;SDS011;33812;46.480;6.834;2023-09-30T15:04:00;28.92;;;25.63;;
48034;SDS011;33812;46.480;6.834;2023-09-30T15:08:02;30.73;;;22.85;;
48034;SDS011;33812;46.480;6.834;2023-09-30T15:12:05;59.88;;;54.85;;
48034;SDS011;33812;46.480;6.834;2023-09-30T15:16:13;33.33;;;29.85;;
48034;SDS011;33812;46.480;6.834;2023-09-30T15:20:16;35.13;;;31.35;;
48034;SDS011;33812;46.480;6.834;2023-09-30T15:24:18;29.88;;;23.10;;
48034;SDS011;33812;46.480;6.834;2023-09-30T15:28:21;44.90;;;41.05;;
48034;SDS011;33812;46.480;6.834;2023-09-30T15:32:23;33.15;;;29.42;;
48034;SDS011;33812;46.480;6.834;2023-09-30T15:36:24;36.58;;;32.88;;
48034;SDS011;33812;46.480;6.834;2023-09-30T15:40:26;32.20;;;29.23;;
48034;SDS011;33812;46.480;6.834;2023-09-30T15:44:30;33.60;;;30.23;;
48034;SDS011;33812;46.480;6.834;2023-09-30T15:48:31;49.78;;;45.88;;
48034;SDS011;33812;46.480;6.834;2023-09-30T15:52:33;28.50;;;25.52;;
48034;SDS011;33812;46.480;6.834;2023-09-30T15:56:35;29.42;;;26.80;;
48034;SDS011;33812;46.480;6.834;2023-09-30T16:00:40;62.15;;;57.47;;
48034;SDS011;33812;46.480;6.834;2023-09-30T16:04:42;60.97;;;56.42;;
48034;SDS011;33812;46.480;6.834;2023-09-30T16:08:43;58.80;;;54.22;;
48034;SDS011;33812;46.480;6.834;2023-09-30T16:12:45;38.45;;;35.05;;
48034;SDS011;33812;46.480;6.834;2023-09-30T16:16:49;78.88;;;73.13;;
48034;SDS011;33812;46.480;6.834;2023-09-30T16:20:51;44.42;;;39.85;;
48034;SDS011;33812;46.480;6.834;2023-09-30T16:24:53;41.83;;;37.83;;
48034;SDS011;33812;46.480;6.834;2023-09-30T16:28:54;62.17;;;57.25;;
48034;SDS011;33812;46.480;6.834;2023-09-30T16:33:00;42.50;;;38.20;;
48034;SDS011;33812;46.480;6.834;2023-09-30T16:37:01;53.65;;;49.03;;
48034;SDS011;33812;46.480;6.834;2023-09-30T16:41:03;26.58;;;23.73;;
48034;SDS011;33812;46.480;6.834;2023-09-30T16:45:05;33.25;;;30.15;;
48034;SDS011;33812;46.480;6.834;2023-09-30T16:49:10;31.98;;;28.58;;
48034;SDS011;33812;46.480;6.834;2023-09-30T16:53:12;34.70;;;31.25;;
48034;SDS011;33812;46.480;6.834;2023-09-30T16:57:14;36.15;;;32.85;;
48034;SDS011;33812;46.480;6.834;2023-09-30T17:01:15;48.97;;;43.88;;
48034;SDS011;33812;46.480;6.834;2023-09-30T17:05:19;62.33;;;56.33;;
48034;SDS011;33812;46.480;6.834;2023-09-30T17:13:24;60.92;;;51.28;;
48034;SDS011;33812;46.480;6.834;2023-09-30T17:17:26;77.80;;;71.03;;
48034;SDS011;33812;46.480;6.834;2023-09-30T17:21:31;74.68;;;67.80;;
48034;SDS011;33812;46.480;6.834;2023-09-30T17:25:33;97.95;;;90.03;;
48034;SDS011;33812;46.480;6.834;2023-09-30T17:29:35;35.25;;;31.88;;
48034;SDS011;33812;46.480;6.834;2023-09-30T17:33:38;28.70;;;25.60;;
48034;SDS011;33812;46.480;6.834;2023-09-30T17:37:42;30.05;;;26.92;;
48034;SDS011;33812;46.480;6.834;2023-09-30T17:41:44;62.90;;;57.10;;
48034;SDS011;33812;46.480;6.834;2023-09-30T17:45:46;78.43;;;72.35;;
48034;SDS011;33812;46.480;6.834;2023-09-30T17:49:48;24.13;;;21.45;;
48034;SDS011;33812;46.480;6.834;2023-09-30T17:53:52;35.20;;;31.58;;
48034;SDS011;33812;46.480;6.834;2023-09-30T17:57:53;55.60;;;50.35;;
48034;SDS011;33812;46.480;6.834;2023-09-30T18:01:57;39.20;;;31.60;;
48034;SDS011;33812;46.480;6.834;2023-09-30T18:06:03;42.90;;;36.33;;
48034;SDS011;33812;46.480;6.834;2023-09-30T18:10:08;46.42;;;24.85;;
48034;SDS011;33812;46.480;6.834;2023-09-30T18:18:18;33.53;;;29.50;;
48034;SDS011;33812;46.480;6.834;2023-09-30T18:22:19;39.85;;;35.40;;
48034;SDS011;33812;46.480;6.834;2023-09-30T18:26:23;42.15;;;35.00;;
48034;SDS011;33812;46.480;6.834;2023-09-30T18:30:24;53.08;;;47.90;;
48034;SDS011;33812;46.480;6.834;2023-09-30T18:34:26;71.72;;;64.97;;
48034;SDS011;33812;46.480;6.834;2023-09-30T18:38:28;60.45;;;54.83;;
48034;SDS011;33812;46.480;6.834;2023-09-30T18:42:34;66.82;;;60.97;;
48034;SDS011;33812;46.480;6.834;2023-09-30T18:46:37;79.43;;;72.47;;
48034;SDS011;33812;46.480;6.834;2023-09-30T18:50:39;86.97;;;79.53;;
48034;SDS011;33812;46.480;6.834;2023-09-30T18:54:42;82.15;;;74.90;;
48034;SDS011;33812;46.480;6.834;2023-09-30T18:58:46;86.68;;;79.50;;
48034;SDS011;33812;46.480;6.834;2023-09-30T19:02:48;79.10;;;72.20;;
48034;SDS011;33812;46.480;6.834;2023-09-30T19:06:50;96.28;;;88.85;;
48034;SDS011;33812;46.480;6.834;2023-09-30T19:10:52;83.72;;;76.45;;
48034;SDS011;33812;46.480;6.834;2023-09-30T19:14:55;80.32;;;73.25;;
48034;SDS011;33812;46.480;6.834;2023-09-30T19:18:57;101.82;;;93.07;;
48034;SDS011;33812;46.480;6.834;2023-09-30T19:23:00;85.63;;;77.32;;
48034;SDS011;33812;46.480;6.834;2023-09-30T19:27:02;86.45;;;78.30;;
48034;SDS011;33812;46.480;6.834;2023-09-30T19:31:05;98.28;;;88.85;;
48034;SDS011;33812;46.480;6.834;2023-09-30T19:35:08;86.50;;;78.47;;
48034;SDS011;33812;46.480;6.834;2023-09-30T19:39:11;113.45;;;103.22;;
48034;SDS011;33812;46.480;6.834;2023-09-30T19:43:13;88.35;;;80.45;;
48034;SDS011;33812;46.480;6.834;2023-09-30T19:47:18;97.75;;;89.70;;
48034;SDS011;33812;46.480;6.834;2023-09-30T19:51:24;98.90;;;90.85;;
48034;SDS011;33812;46.480;6.834;2023-09-30T19:55:26;114.93;;;105.20;;
48034;SDS011;33812;46.480;6.834;2023-09-30T19:59:28;86.88;;;78.75;;
48034;SDS011;33812;46.480;6.834;2023-09-30T20:03:33;90.07;;;81.93;;
48034;SDS011;33812;46.480;6.834;2023-09-30T20:07:36;81.22;;;73.45;;
48034;SDS011;33812;46.480;6.834;2023-09-30T20:11:38;118.18;;;108.78;;
48034;SDS011;33812;46.480;6.834;2023-09-30T20:15:40;100.82;;;92.88;;
48034;SDS011;33812;46.480;6.834;2023-09-30T20:19:44;88.72;;;81.55;;
48034;SDS011;33812;46.480;6.834;2023-09-30T20:23:48;108.75;;;100.72;;
48034;SDS011;33812;46.480;6.834;2023-09-30T20:27:53;93.88;;;86.22;;
48034;SDS011;33812;46.480;6.834;2023-09-30T20:31:54;113.10;;;103.68;;
48034;SDS011;33812;46.480;6.834;2023-09-30T20:35:58;94.25;;;87.03;;
48034;SDS011;33812;46.480;6.834;2023-09-30T20:40:00;107.85;;;99.45;;
48034;SDS011;33812;46.480;6.834;2023-09-30T20:44:03;96.35;;;88.95;;
48034;SDS011;33812;46.480;6.834;2023-09-30T20:48:07;109.95;;;101.47;;
48034;SDS011;33812;46.480;6.834;2023-09-30T20:52:12;132.43;;;111.78;;
48034;SDS011;33812;46.480;6.834;2023-09-30T20:56:13;104.20;;;96.25;;
48034;SDS011;33812;46.480;6.834;2023-09-30T21:00:16;100.95;;;92.45;;
48034;SDS011;33812;46.480;6.834;2023-09-30T21:04:19;102.65;;;94.90;;
48034;SDS011;33812;46.480;6.834;2023-09-30T21:08:23;84.72;;;77.63;;
48034;SDS011;33812;46.480;6.834;2023-09-30T21:12:24;71.00;;;64.78;;
48034;SDS011;33812;46.480;6.834;2023-09-30T21:16:27;74.60;;;68.47;;
48034;SDS011;33812;46.480;6.834;2023-09-30T21:20:28;82.72;;;75.75;;
48034;SDS011;33812;46.480;6.834;2023-09-30T21:24:32;80.43;;;74.20;;
48034;SDS011;33812;46.480;6.834;2023-09-30T21:28:33;74.55;;;67.95;;
48034;SDS011;33812;46.480;6.834;2023-09-30T21:32:36;57.40;;;52.30;;
48034;SDS011;33812;46.480;6.834;2023-09-30T21:36:39;54.95;;;50.38;;
48034;SDS011;33812;46.480;6.834;2023-09-30T21:40:42;66.10;;;60.85;;
48034;SDS011;33812;46.480;6.834;2023-09-30T21:44:44;44.95;;;40.58;;
48034;SDS011;33812;46.480;6.834;2023-09-30T21:48:46;65.47;;;60.13;;
48034;SDS011;33812;46.480;6.834;2023-09-30T21:52:48;44.20;;;40.33;;
48034;SDS011;33812;46.480;6.834;2023-09-30T21:56:52;53.95;;;48.95;;
48034;SDS011;33812;46.480;6.834;2023-09-30T22:00:53;58.42;;;53.53;;
48034;SDS011;33812;46.480;6.834;2023-09-30T22:04:55;56.05;;;51.35;;
48034;SDS011;33812;46.480;6.834;2023-09-30T22:08:57;48.83;;;44.83;;
48034;SDS011;33812;46.480;6.834;2023-09-30T22:13:00;51.10;;;46.85;;
48034;SDS011;33812;46.480;6.834;2023-09-30T22:17:02;58.50;;;53.72;;
48034;SDS011;33812;46.480;6.834;2023-09-30T22:21:05;53.03;;;48.70;;
48034;SDS011;33812;46.480;6.834;2023-09-30T22:25:10;49.22;;;44.97;;
48034;SDS011;33812;46.480;6.834;2023-09-30T22:29:15;45.63;;;41.35;;
48034;SDS011;33812;46.480;6.834;2023-09-30T22:33:17;45.88;;;41.95;;
48034;SDS011;33812;46.480;6.834;2023-09-30T22:37:19;43.75;;;39.85;;
48034;SDS011;33812;46.480;6.834;2023-09-30T22:41:20;47.47;;;43.10;;
48034;SDS011;33812;46.480;6.834;2023-09-30T22:45:24;46.70;;;42.90;;
48034;SDS011;33812;46.480;6.834;2023-09-30T22:49:26;42.20;;;38.47;;
48034;SDS011;33812;46.480;6.834;2023-09-30T22:53:28;44.83;;;40.83;;
48034;SDS011;33812;46.480;6.834;2023-09-30T22:57:30;52.08;;;47.92;;
48034;SDS011;33812;46.480;6.834;2023-09-30T23:01:34;30.75;;;28.05;;
48034;SDS011;33812;46.480;6.834;2023-09-30T23:05:36;40.42;;;36.65;;
48034;SDS011;33812;46.480;6.834;2023-09-30T23:09:41;33.70;;;30.17;;
48034;SDS011;33812;46.480;6.834;2023-09-30T23:13:43;49.22;;;45.40;;
48034;SDS011;33812;46.480;6.834;2023-09-30T23:17:47;43.22;;;39.72;;
48034;SDS011;33812;46.480;6.834;2023-09-30T23:21:50;36.70;;;33.50;;
48034;SDS011;33812;46.480;6.834;2023-09-30T23:25:53;40.67;;;37.17;;
48034;SDS011;33812;46.480;6.834;2023-09-30T23:29:56;50.13;;;46.20;;
48034;SDS011;33812;46.480;6.834;2023-09-30T23:34:00;35.58;;;32.30;;
48034;SDS011;33812;46.480;6.834;2023-09-30T23:38:03;35.70;;;32.63;;
48034;SDS011;33812;46.480;6.834;2023-09-30T23:46:10;35.75;;;32.42;;
48034;SDS011;33812;46.480;6.834;2023-09-30T23:50:13;35.10;;;32.15;;
48034;SDS011;33812;46.480;6.834;2023-09-30T23:54:17;37.78;;;34.38;;
48034;SDS011;33812;46.480;6.834;2023-09-30T23:58:20;33.80;;;31.10;;
